Lexington, Nebraska
Current Conditions -  °F | °C
As of 9:55 PM on Wednesday 17 Dec 2014 (Local Time) from KLXN Reporting Station
Overcast Overcast  
Wind Chill: 19°   Ceiling: 700
Heat Index: 25°   Visibility: 7mi
Dew Point: 23°   Wind: 6mph
Humidity: 91%   Direction: 140°SE
Pressure: 30.14"   Gusts: NA
Location:  40.78°N, 99.74°W
Report Text: KLXN 180355Z AUTO 14005KT 7SM OVC007 M04/M05 A3014 RMK AO2 T10371050
Loading
Personal Weather Stations






























Interactive Weather Map New forecast layout! Learn more

10-Day Weather Forecast

Advertisements
Track Severe Weather on mobile